Time;durP1;ratioP1;P1;durP2;ratioP2;P2;SDS_P1;SDS_P2;PMS_P1;PMS_P2;Temp;Humidity;BMP_temperature;BMP_pressure;BME280_temperature;BME280_humidity;BME280_pressure;Samples;Min_cycle;Max_cycle;Signal;HPM_P1;HPM_P2
2021/12/14 00:01:14;;;;;;;4.10;1.40;;;;;;;19.95;52.88;97607.13;10372595;28;20129;-22
2021/12/14 00:06:17;;;;;;;2.92;1.42;;;;;;;19.94;52.72;97607.97;10370210;28;20507;-22
2021/12/14 00:16:28;;;;;;;1.73;1.30;;;;;;;19.90;52.97;97598.59;10364935;28;20041;-22
2021/12/14 00:21:30;;;;;;;5.65;2.08;;;;;;;19.91;53.12;97600.34;10366387;28;20041;-22
2021/12/14 00:26:31;;;;;;;1.38;1.05;;;;;;;19.89;53.06;97599.44;10365079;28;20030;-22
2021/12/14 00:31:34;;;;;;;2.25;1.70;;;;;;;19.91;53.03;97602.88;10365788;28;20080;-22
2021/12/14 00:36:38;;;;;;;1.23;0.95;;;;;;;19.91;52.91;97607.97;10358623;28;20026;-22
2021/12/14 00:41:40;;;;;;;1.27;1.00;;;;;;;19.88;53.03;97600.28;10364693;28;20467;-22
2021/12/14 00:46:41;;;;;;;4.03;1.00;;;;;;;19.93;53.15;97603.72;10368021;28;20482;-22
2021/12/14 00:51:43;;;;;;;3.88;1.10;;;;;;;19.96;52.76;97608.84;10360337;28;20517;-22
2021/12/14 00:56:47;;;;;;;4.55;1.27;;;;;;;19.92;52.97;97599.50;10361747;28;20025;-22
2021/12/14 01:01:58;;;;;;;3.10;1.38;;;;;;;19.92;52.97;97609.66;10362681;28;20079;-22
2021/12/14 01:06:59;;;;;;;5.15;1.27;;;;;;;19.90;53.21;97621.47;10364302;28;20113;-22
2021/12/14 01:12:08;;;;;;;2.88;1.10;;;;;;;19.92;53.32;97600.31;10364686;28;20065;-22
2021/12/14 01:17:27;;;;;;;3.95;1.08;;;;;;;19.89;52.93;97609.59;10354790;28;20075;-22
2021/12/14 01:27:45;;;;;;;4.00;1.25;;;;;;;19.91;52.88;97623.22;10362787;28;20041;-22
2021/12/14 01:32:49;;;;;;;2.75;1.08;;;;;;;19.91;53.04;97631.66;10363506;28;20100;-22
2021/12/14 01:38:01;;;;;;;3.20;1.15;;;;;;;19.87;53.09;97618.91;10363018;28;20040;-22
2021/12/14 01:43:04;;;;;;;3.55;0.90;;;;;;;19.92;52.27;97640.16;10358496;28;20022;-22
2021/12/14 01:48:04;;;;;;;3.95;1.08;;;;;;;19.88;53.25;97641.81;10367418;28;20037;-22
2021/12/14 01:53:20;;;;;;;3.00;1.15;;;;;;;19.90;53.17;97649.44;10355562;28;20473;-22
2021/12/14 01:58:23;;;;;;;2.35;0.88;;;;;;;19.89;52.85;97650.28;10356811;28;20030;-23
2021/12/14 02:03:31;;;;;;;2.28;0.98;;;;;;;19.87;53.09;97654.50;10362162;28;20018;-22
2021/12/14 02:08:38;;;;;;;2.20;0.90;;;;;;;19.88;53.07;97651.13;10371934;28;20041;-22
2021/12/14 02:13:45;;;;;;;1.40;0.88;;;;;;;19.89;52.71;97646.06;10352905;28;20468;-21
2021/12/14 02:18:55;;;;;;;1.40;1.02;;;;;;;19.89;53.12;97638.44;10377577;28;20448;-23
2021/12/14 02:23:58;;;;;;;1.25;0.85;;;;;;;19.91;52.96;97643.53;10371472;28;20029;-22
2021/12/14 02:29:01;;;;;;;3.17;0.85;;;;;;;19.95;52.59;97641.03;10367196;28;20080;-22
2021/12/14 02:34:04;;;;;;;2.10;0.75;;;;;;;19.91;53.04;97628.28;10367769;28;20034;-22
2021/12/14 02:39:22;;;;;;;1.98;1.55;;;;;;;19.89;53.18;97629.94;10371150;28;20040;-22
2021/12/14 02:44:23;;;;;;;1.30;0.90;;;;;;;19.90;52.65;97626.56;10366268;28;20068;-23
2021/12/14 02:49:27;;;;;;;3.20;0.80;;;;;;;19.89;52.95;97622.31;10372171;28;20524;-22
2021/12/14 02:54:31;;;;;;;1.85;0.75;;;;;;;19.91;52.97;97621.50;10363533;28;20038;-22
2021/12/14 02:59:34;;;;;;;1.45;0.88;;;;;;;19.89;53.08;97607.06;10369894;28;20030;-22
2021/12/14 03:04:49;;;;;;;4.97;1.60;;;;;;;19.88;52.99;97602.81;10366991;28;20022;-22
2021/12/14 03:09:58;;;;;;;3.08;1.00;;;;;;;19.88;52.91;97592.66;10369579;28;20034;-22
2021/12/14 03:15:08;;;;;;;2.15;1.00;;;;;;;19.94;52.82;97588.47;10363810;28;20041;-22
2021/12/14 03:20:10;;;;;;;2.10;1.13;;;;;;;19.97;52.61;97582.56;10367692;28;20418;-22
2021/12/14 03:25:13;;;;;;;2.55;1.05;;;;;;;19.95;52.93;97584.25;10366217;28;20394;-22
2021/12/14 03:30:46;;;;;;;2.22;0.90;;;;;;;19.93;52.57;97591.84;10365665;28;20071;-22
2021/12/14 03:35:55;;;;;;;2.75;0.70;;;;;;;19.90;52.82;97581.69;10346755;28;20414;-22
2021/12/14 03:41:02;;;;;;;1.33;0.80;;;;;;;19.90;52.52;97596.06;10367633;28;20022;-22
2021/12/14 03:46:04;;;;;;;2.15;0.80;;;;;;;19.89;52.65;97595.22;10370658;28;20030;-22
2021/12/14 03:51:06;;;;;;;1.40;1.05;;;;;;;19.89;52.91;97609.59;10365795;28;20041;-21
2021/12/14 03:56:07;;;;;;;0.93;0.77;;;;;;;19.88;52.62;97610.44;10360890;28;20038;-22
2021/12/14 04:01:17;;;;;;;2.03;0.90;;;;;;;19.90;52.84;97621.47;10367092;28;20030;-22
2021/12/14 04:06:25;;;;;;;1.52;0.77;;;;;;;19.93;52.47;97642.69;10366129;28;20060;-22
2021/12/14 04:11:26;;;;;;;1.60;0.70;;;;;;;19.90;52.22;97659.59;10367058;28;20036;-22
2021/12/14 04:16:26;;;;;;;0.93;0.70;;;;;;;19.90;52.55;97682.47;10365547;28;20383;-22
2021/12/14 04:21:28;;;;;;;1.77;0.60;;;;;;;19.89;52.75;97683.31;10365448;28;20449;-22
2021/12/14 04:26:30;;;;;;;2.17;0.73;;;;;;;19.83;52.85;97671.41;10365479;28;20036;-22
2021/12/14 04:31:36;;;;;;;1.27;0.60;;;;;;;19.85;52.60;97690.06;10364132;28;20379;-22
2021/12/14 04:36:40;;;;;;;3.42;0.68;;;;;;;19.87;52.97;97700.25;10358549;28;20026;-22
2021/12/14 04:52:28;;;;;;;1.10;0.50;;;;;;;20.05;51.96;97664.88;10360421;28;20025;-22
2021/12/14 04:57:37;;;;;;;5.35;0.80;;;;;;;20.09;52.20;97664.91;10352923;28;20148;-22
2021/12/14 05:02:38;;;;;;;1.75;0.85;;;;;;;20.11;51.69;97659.84;10357097;28;20548;-22
2021/12/14 05:13:24;;;;;;;3.20;0.70;;;;;;;20.09;51.40;97666.63;10353355;28;20418;-22
2021/12/14 05:18:25;;;;;;;1.33;0.70;;;;;;;20.09;51.67;97661.53;10356323;28;20145;-22
2021/12/14 05:23:32;;;;;;;1.70;0.65;;;;;;;20.08;51.92;97642.03;10365831;28;20035;-22
2021/12/14 05:28:33;;;;;;;1.35;0.80;;;;;;;20.06;52.45;97624.22;10359388;28;20037;-22
2021/12/14 05:33:39;;;;;;;2.87;0.63;;;;;;;20.07;52.05;97619.97;10365306;28;20168;-22
2021/12/14 05:39:07;;;;;;;5.22;0.80;;;;;;;20.07;52.12;97620.81;10365920;28;20511;-22
2021/12/14 05:44:44;;;;;;;4.82;1.05;;;;;;;20.09;51.75;97605.59;10359510;28;20058;-23
2021/12/14 05:49:48;;;;;;;1.00;0.50;;;;;;;20.06;51.77;97606.41;10376015;28;20025;-23
2021/12/14 05:54:49;;;;;;;3.53;1.00;;;;;;;19.44;47.84;97619.34;10378478;28;20480;-23
2021/12/14 05:59:52;;;;;;;3.28;1.40;;;;;;;19.32;45.96;97619.19;10376102;28;20490;-23
2021/12/14 06:04:55;;;;;;;3.13;2.67;;;;;;;19.34;47.57;97607.41;10374600;28;20026;-23
2021/12/14 06:09:57;;;;;;;4.57;3.70;;;;;;;19.34;49.44;97598.06;10372587;28;20482;-23
2021/12/14 06:15:14;;;;;;;6.57;3.42;;;;;;;19.42;50.60;97588.00;10371751;28;20034;-23
2021/12/14 06:20:19;;;;;;;8.57;3.38;;;;;;;19.64;50.50;97582.28;10374651;28;20033;-20
2021/12/14 06:25:25;;;;;;;;;;;;;;;19.76;51.27;97583.25;10360276;28;20113;-20
2021/12/14 06:30:29;;;;;;;21.42;6.00;;;;;;;19.80;51.66;97568.88;10373999;28;19914;-20
2021/12/14 06:35:37;;;;;;;9.32;3.08;;;;;;;19.46;48.74;97572.81;10375400;28;20581;-20
2021/12/14 06:40:45;;;;;;;11.10;3.08;;;;;;;19.62;48.12;97564.50;10375781;28;20058;-20
2021/12/14 06:45:55;;;;;;;12.73;4.00;;;;;;;19.79;49.69;97585.84;10379029;28;20490;-21
2021/12/14 06:51:15;;;;;;;13.50;3.97;;;;;;;19.83;49.76;97582.47;10371814;28;20040;-21
2021/12/14 06:56:30;;;;;;;12.57;3.65;;;;;;;19.83;49.57;97589.25;10365595;28;20033;-21
2021/12/14 07:01:37;;;;;;;13.50;4.57;;;;;;;19.82;49.64;97587.53;10366384;28;20080;-21
2021/12/14 07:06:44;;;;;;;14.10;4.65;;;;;;;19.79;49.18;97607.84;10367434;28;20037;-20
2021/12/14 07:11:48;;;;;;;9.20;4.60;;;;;;;19.80;49.37;97604.44;10368363;28;20187;-20
2021/12/14 07:16:48;;;;;;;7.55;3.38;;;;;;;19.80;49.18;97622.25;10368768;28;20061;-20
2021/12/14 07:21:49;;;;;;;12.57;4.63;;;;;;;19.86;49.14;97619.75;10368651;28;20109;-21
2021/12/14 07:27:10;;;;;;;12.45;4.50;;;;;;;19.87;48.87;97636.72;10369147;28;20049;-20
2021/12/14 07:32:11;;;;;;;17.73;5.75;;;;;;;19.85;49.47;97649.41;10368014;28;20050;-21
2021/12/14 07:37:11;;;;;;;15.25;5.00;;;;;;;19.83;49.10;97640.06;10367133;28;20036;-21
2021/12/14 07:42:15;;;;;;;14.97;6.70;;;;;;;19.86;50.05;97645.19;10367540;28;20026;-20
2021/12/14 07:47:30;;;;;;;21.80;7.97;;;;;;;19.86;50.55;97653.63;10369379;28;20068;-20
2021/12/14 07:52:35;;;;;;;13.87;6.40;;;;;;;19.85;51.05;97638.41;10360017;28;20116;-20
2021/12/14 07:57:38;;;;;;;20.13;6.90;;;;;;;19.83;51.02;97638.38;10361006;28;20908;-20
2021/12/14 08:03:01;;;;;;;18.63;6.88;;;;;;;19.82;50.92;97643.44;10367759;28;20033;-20
2021/12/14 08:08:25;;;;;;;31.60;13.07;;;;;;;19.83;51.18;97656.16;10366916;28;20038;-20
2021/12/14 08:13:26;;;;;;;26.65;12.25;;;;;;;19.85;51.93;97662.09;10365550;28;20458;-20
2021/12/14 08:18:32;;;;;;;16.40;7.37;;;;;;;19.92;50.75;97656.25;10365603;28;20034;-20
2021/12/14 08:23:34;;;;;;;;;;;;;;;19.76;51.23;97663.72;10364556;28;20854;-20
2021/12/14 08:28:57;;;;;;;19.77;8.38;;;;;;;19.68;51.89;97655.16;10366863;28;19913;-21
2021/12/14 08:34:01;;;;;;;21.05;9.63;;;;;;;19.63;52.31;97657.66;10363615;28;20037;-21
2021/12/14 08:39:12;;;;;;;27.25;10.23;;;;;;;19.63;52.82;97661.88;10366218;28;20037;-21
2021/12/14 08:44:20;;;;;;;20.67;9.43;;;;;;;19.61;52.49;97664.38;10361961;28;20144;-20
2021/12/14 08:49:21;;;;;;;26.77;9.55;;;;;;;19.66;52.49;97664.47;10368409;28;20065;-21
2021/12/14 08:54:26;;;;;;;25.20;10.45;;;;;;;19.76;52.03;97664.56;10351572;28;20573;-21
2021/12/14 08:59:28;;;;;;;27.45;11.45;;;;;;;19.82;51.93;97668.84;10365768;28;20040;-21
2021/12/14 09:04:35;;;;;;;38.70;13.48;;;;;;;19.66;52.37;97636.53;10364504;28;20031;-21
2021/12/14 09:09:37;;;;;;;54.47;15.05;;;;;;;19.62;53.18;97668.66;10364910;28;20586;-21
2021/12/14 09:14:39;;;;;;;57.50;13.55;;;;;;;19.61;53.10;97648.31;10363349;28;20091;-21
2021/12/14 09:19:48;;;;;;;44.13;14.07;;;;;;;19.65;53.50;97660.19;10362683;28;20441;-21
2021/12/14 09:24:49;;;;;;;42.83;15.88;;;;;;;19.62;53.00;97670.34;10365889;28;20022;-22
2021/12/14 09:29:50;;;;;;;52.22;16.75;;;;;;;19.69;53.09;97661.94;10364388;28;20029;-22
2021/12/14 09:34:51;;;;;;;39.38;17.05;;;;;;;19.61;53.34;97663.56;10360187;28;20030;-22
2021/12/14 09:39:59;;;;;;;36.85;16.75;;;;;;;19.64;53.26;97663.59;10364002;28;20097;-21
2021/12/14 09:45:17;;;;;;;40.45;17.33;;;;;;;19.69;52.95;97654.31;10359557;28;20038;-22
2021/12/14 09:50:25;;;;;;;35.80;17.73;;;;;;;19.70;53.06;97648.41;10366943;28;20515;-21
2021/12/14 09:55:32;;;;;;;48.88;21.83;;;;;;;19.74;52.89;97647.59;10376353;28;20084;-21
2021/12/14 10:00:37;;;;;;;45.45;19.63;;;;;;;19.78;52.88;97623.91;10372346;28;20049;-21
2021/12/14 10:05:46;;;;;;;40.88;19.73;;;;;;;19.80;52.94;97619.69;10364057;28;20034;-21
2021/12/14 10:11:03;;;;;;;35.28;18.35;;;;;;;19.83;52.85;97617.22;10364603;28;20026;-21
2021/12/14 10:16:06;;;;;;;39.20;20.90;;;;;;;19.81;52.80;97613.78;10361608;28;20398;-22
2021/12/14 10:21:15;;;;;;;42.80;20.52;;;;;;;19.82;53.03;97598.56;10362185;28;20407;-21
2021/12/14 10:26:17;;;;;;;43.33;20.85;;;;;;;19.85;53.14;97592.66;10366891;28;20473;-21
2021/12/14 10:31:43;;;;;;;39.70;20.00;;;;;;;19.91;52.83;97605.41;10370437;28;20417;-21
2021/12/14 10:36:48;;;;;;;37.80;18.95;;;;;;;19.90;52.94;97598.59;10365021;28;20424;-21
2021/12/14 10:47:15;;;;;;;29.65;15.60;;;;;;;20.07;52.27;97612.34;10372270;28;20033;-21
2021/12/14 10:52:20;;;;;;;34.25;17.27;;;;;;;20.01;52.62;97614.81;10364080;28;20057;-21
2021/12/14 10:57:25;;;;;;;30.98;14.77;;;;;;;20.06;52.61;97621.66;10369382;28;20109;-21
2021/12/14 11:02:27;;;;;;;31.05;14.55;;;;;;;20.06;52.58;97615.72;10373055;28;20044;-21
2021/12/14 11:07:40;;;;;;;30.02;15.75;;;;;;;19.99;53.05;97619.00;10368720;28;20034;-21
2021/12/14 11:12:46;;;;;;;32.45;16.38;;;;;;;20.10;52.49;97612.38;10363684;28;20052;-21
2021/12/14 11:18:11;;;;;;;32.08;15.27;;;;;;;19.92;53.26;97632.53;10369648;28;20021;-21
2021/12/14 11:23:16;;;;;;;26.95;12.77;;;;;;;19.81;52.44;97631.56;10367049;28;20080;-21
2021/12/14 11:28:40;;;;;;;29.73;15.52;;;;;;;19.66;53.60;97621.28;10367972;28;20506;-22
2021/12/14 11:34:12;;;;;;;35.58;17.23;;;;;;;19.60;54.22;97616.13;10361644;28;20042;-21
2021/12/14 11:39:24;;;;;;;32.38;18.15;;;;;;;19.62;54.27;97619.53;10367324;28;20038;-21
2021/12/14 11:44:34;;;;;;;38.70;18.08;;;;;;;19.58;54.66;97622.91;10360488;28;20079;-21
2021/12/14 11:49:40;;;;;;;31.20;17.83;;;;;;;19.61;54.93;97623.75;10366175;28;20096;-21
2021/12/14 11:54:46;;;;;;;33.97;16.02;;;;;;;19.60;54.90;97608.50;10362187;28;20045;-21
2021/12/14 11:59:58;;;;;;;27.48;15.50;;;;;;;19.57;54.68;97614.41;10368471;28;20033;-21
2021/12/14 12:05:12;;;;;;;31.85;15.00;;;;;;;19.59;54.80;97616.97;10367110;28;20034;-22
2021/12/14 12:10:12;;;;;;;26.33;14.27;;;;;;;19.56;54.67;97609.31;10367081;28;20030;-22
2021/12/14 12:15:19;;;;;;;30.77;16.37;;;;;;;19.43;55.75;97607.50;10364883;28;20403;-21
2021/12/14 12:20:25;;;;;;;30.13;17.00;;;;;;;19.32;56.96;97593.81;10365785;28;20022;-21
2021/12/14 12:25:41;;;;;;;33.00;17.13;;;;;;;19.43;56.41;97597.34;10360987;28;20068;-21
2021/12/14 12:30:49;;;;;;;26.50;16.38;;;;;;;19.35;57.35;97604.84;10365756;28;20088;-22
2021/12/14 12:35:55;;;;;;;32.67;17.17;;;;;;;19.44;57.13;97604.94;10365344;28;20498;-21
2021/12/14 12:41:26;;;;;;;28.45;16.15;;;;;;;19.39;57.50;97598.13;10366372;28;20036;-21
2021/12/14 12:46:29;;;;;;;27.48;15.85;;;;;;;19.35;57.94;97599.78;10363745;28;20045;-22
2021/12/14 12:51:51;;;;;;;28.83;17.50;;;;;;;19.34;57.74;97599.78;10362799;28;20045;-21
2021/12/14 12:57:38;;;;;;;26.48;15.45;;;;;;;19.33;57.78;97605.69;10364369;28;20034;-22
2021/12/14 13:02:48;;;;;;;26.35;16.48;;;;;;;19.35;57.59;97598.94;10368050;28;20077;-22
2021/12/14 13:07:57;;;;;;;29.25;15.75;;;;;;;19.35;57.46;97598.94;10364967;28;20107;-21
2021/12/14 13:13:10;;;;;;;24.73;14.55;;;;;;;19.33;57.19;97593.84;10359993;28;20046;-22
2021/12/14 13:18:27;;;;;;;27.58;14.77;;;;;;;19.33;57.01;97595.53;10364732;28;20057;-22
2021/12/14 13:24:06;;;;;;;26.00;15.48;;;;;;;19.34;56.53;97587.91;10361854;28;20053;-22
2021/12/14 13:29:12;;;;;;;28.17;14.68;;;;;;;19.32;57.10;97581.13;10362391;28;20034;-23
2021/12/14 13:34:17;;;;;;;27.57;13.30;;;;;;;19.36;56.04;97585.41;10363447;28;20065;-22
2021/12/14 13:39:19;;;;;;;25.92;14.95;;;;;;;19.27;57.07;97582.78;10364469;28;20276;-22
2021/12/14 13:44:19;;;;;;;23.80;14.88;;;;;;;19.27;57.14;97585.31;10362091;28;20117;-22
2021/12/14 13:49:20;;;;;;;23.03;14.50;;;;;;;19.30;57.17;97596.34;10367401;28;20032;-22
2021/12/14 13:54:22;;;;;;;24.75;14.10;;;;;;;19.36;56.92;97590.47;10358773;28;20053;-22
2021/12/14 13:59:22;;;;;;;27.02;15.15;;;;;;;19.41;56.95;97599.00;10362449;28;20033;-22
2021/12/14 14:04:25;;;;;;;26.93;14.40;;;;;;;19.41;56.45;97599.84;10371153;28;20028;-22
2021/12/14 14:09:29;;;;;;;26.77;14.07;;;;;;;19.39;56.31;97595.59;10371619;28;20037;-22
2021/12/14 14:14:33;;;;;;;19.05;12.73;;;;;;;19.45;56.16;97600.72;10370252;28;20030;-22
2021/12/14 14:19:40;;;;;;;24.02;14.88;;;;;;;19.42;56.37;97610.88;10366982;28;20038;-22
2021/12/14 14:24:45;;;;;;;29.58;13.63;;;;;;;19.48;55.77;97616.00;10372654;28;20041;-23
2021/12/14 14:29:48;;;;;;;26.52;13.98;;;;;;;19.42;55.36;97613.41;10368945;28;20025;-22
2021/12/14 14:34:55;;;;;;;33.30;15.07;;;;;;;19.44;56.40;97614.28;10370130;28;20064;-22
2021/12/14 14:40:19;;;;;;;31.35;14.65;;;;;;;19.44;56.22;97604.13;10365516;28;20034;-22
2021/12/14 14:45:27;;;;;;;25.88;13.05;;;;;;;19.47;55.66;97615.16;10371700;28;20057;-23
2021/12/14 14:50:31;;;;;;;24.15;13.88;;;;;;;19.38;51.95;97624.34;10369363;28;20116;-22
2021/12/14 14:55:45;;;;;;;23.02;13.48;;;;;;;19.47;55.75;97634.59;10365602;28;20033;-22
2021/12/14 15:00:58;;;;;;;22.70;13.07;;;;;;;19.47;55.86;97637.16;10371412;28;20034;-22
2021/12/14 15:06:04;;;;;;;21.73;12.90;;;;;;;19.44;55.81;97637.13;10360328;28;20038;-23
2021/12/14 15:11:11;;;;;;;;;;;;;;;19.41;55.99;97644.72;10369115;28;20405;-22
2021/12/14 15:16:19;;;;;;;19.13;12.30;;;;;;;19.40;55.87;97641.31;10361500;28;19913;-22
2021/12/14 15:21:49;;;;;;;23.80;13.02;;;;;;;19.42;55.74;97652.34;10368333;28;20633;-22
2021/12/14 15:27:08;;;;;;;20.17;12.52;;;;;;;19.42;55.93;97661.66;10357536;28;20045;-22
2021/12/14 15:32:17;;;;;;;18.15;11.63;;;;;;;19.41;55.66;97662.50;10364418;28;20681;-22
2021/12/14 15:37:41;;;;;;;18.13;11.45;;;;;;;19.42;55.66;97666.75;10367285;28;20108;-22
2021/12/14 15:42:44;;;;;;;16.92;11.32;;;;;;;19.38;55.21;97654.81;10358389;28;20034;-22
2021/12/14 15:48:06;;;;;;;17.85;11.80;;;;;;;19.43;55.42;97668.44;10373256;28;20034;-22
2021/12/14 15:53:16;;;;;;;19.70;11.23;;;;;;;19.41;55.53;97670.13;10359125;28;20117;-22
2021/12/14 15:58:21;;;;;;;16.00;10.55;;;;;;;19.43;55.54;97676.06;10366376;28;20095;-22
2021/12/14 16:03:23;;;;;;;18.85;11.07;;;;;;;19.28;55.48;97663.19;10368866;28;20199;-22
2021/12/14 16:08:27;;;;;;;16.05;10.43;;;;;;;19.41;55.33;97690.44;10367476;28;20029;-23
2021/12/14 16:18:53;;;;;;;15.40;11.00;;;;;;;19.40;55.56;97709.03;10365718;28;20037;-23
2021/12/14 16:23:56;;;;;;;19.20;10.65;;;;;;;19.40;55.59;97712.44;10362136;28;20105;-22
2021/12/14 16:29:03;;;;;;;20.35;12.18;;;;;;;19.45;55.27;97717.56;10361620;28;20454;-22
2021/12/14 16:34:13;;;;;;;17.40;10.63;;;;;;;19.34;54.71;97708.97;10365736;28;20028;-22
2021/12/14 16:39:28;;;;;;;17.92;10.77;;;;;;;19.44;54.73;97719.22;10366257;28;20374;-22
2021/12/14 16:44:40;;;;;;;17.52;10.80;;;;;;;19.45;55.04;97727.72;10361840;28;20409;-22
2021/12/14 16:49:44;;;;;;;17.98;10.90;;;;;;;19.47;55.10;97729.44;10369142;28;21104;-22
2021/12/14 16:54:49;;;;;;;15.73;9.95;;;;;;;19.45;55.09;97742.97;10360024;28;20044;-22
2021/12/14 16:59:57;;;;;;;15.32;9.77;;;;;;;19.50;54.60;97739.63;10366159;28;20064;-22
2021/12/14 17:04:59;;;;;;;15.15;9.45;;;;;;;19.43;54.38;97744.63;10364790;28;20049;-22
2021/12/14 17:10:02;;;;;;;13.70;9.60;;;;;;;19.48;54.53;97740.44;10359138;28;20092;-22
2021/12/14 17:15:14;;;;;;;12.35;9.43;;;;;;;19.50;54.37;97744.72;10365373;28;20127;-22
2021/12/14 17:20:14;;;;;;;18.92;10.50;;;;;;;19.38;53.76;97747.13;10359291;28;20478;-22
2021/12/14 17:25:19;;;;;;;16.83;10.00;;;;;;;19.42;54.55;97732.78;10363576;28;20030;-22
2021/12/14 17:30:27;;;;;;;14.93;9.30;;;;;;;19.52;54.66;97744.75;10364870;28;20497;-22
2021/12/14 17:35:32;;;;;;;18.15;11.48;;;;;;;19.52;55.04;97745.59;10356955;28;20498;-22
2021/12/14 17:40:37;;;;;;;15.02;9.23;;;;;;;19.47;55.15;97754.84;10364965;28;20034;-22
2021/12/14 17:45:41;;;;;;;18.48;10.00;;;;;;;19.48;54.89;97760.75;10359719;28;20112;-22
2021/12/14 17:50:49;;;;;;;17.77;11.57;;;;;;;19.47;55.22;97762.47;10363089;28;20491;-21
2021/12/14 17:55:54;;;;;;;17.17;10.65;;;;;;;19.51;54.66;97755.75;10358790;28;20528;-22
2021/12/14 18:00:54;;;;;;;21.63;11.15;;;;;;;19.49;54.91;97763.34;10363441;28;20030;-22
2021/12/14 18:05:59;;;;;;;24.45;11.40;;;;;;;19.53;54.74;97771.84;10360996;28;20502;-23
2021/12/14 18:11:15;;;;;;;32.80;16.90;;;;;;;19.50;55.23;97771.81;10359052;28;20041;-23
2021/12/14 18:16:21;;;;;;;44.58;24.23;;;;;;;19.53;55.04;97771.84;10353659;28;20060;-22
2021/12/14 18:21:23;;;;;;;41.47;23.73;;;;;;;19.44;55.33;97756.50;10361898;28;20025;-22
2021/12/14 18:26:30;;;;;;;40.95;23.98;;;;;;;19.51;55.47;97769.28;10359933;28;20468;-23
2021/12/14 18:31:32;;;;;;;45.47;23.92;;;;;;;19.44;55.91;97771.72;10358705;28;20069;-22
2021/12/14 18:36:37;;;;;;;61.65;30.75;;;;;;;19.40;56.35;97770.84;10355333;28;20030;-22
2021/12/14 18:41:38;;;;;;;66.60;34.60;;;;;;;19.37;55.94;97767.41;10357921;28;20101;-22
2021/12/14 18:47:03;;;;;;;74.60;38.63;;;;;;;19.38;56.90;97766.56;10359517;28;20608;-22
2021/12/14 18:52:05;;;;;;;71.55;37.53;;;;;;;19.41;56.68;97767.47;10367146;28;20297;-22
2021/12/14 18:57:07;;;;;;;83.60;40.80;;;;;;;19.39;56.74;97765.72;10366523;28;20116;-23
2021/12/14 19:02:18;;;;;;;81.20;42.40;;;;;;;19.37;56.78;97762.31;10371409;28;20125;-22
2021/12/14 19:07:33;;;;;;;74.03;41.17;;;;;;;19.41;56.79;97764.09;10369244;28;20422;-21
2021/12/14 19:12:34;;;;;;;76.88;41.83;;;;;;;19.38;56.73;97764.03;10360032;28;20025;-22
2021/12/14 19:17:40;;;;;;;76.75;41.65;;;;;;;19.37;56.71;97770.81;10370047;28;20114;-23
2021/12/14 19:22:52;;;;;;;76.60;41.37;;;;;;;19.40;56.73;97777.59;10368579;28;20409;-22
2021/12/14 19:27:56;;;;;;;71.55;38.53;;;;;;;19.39;56.67;97780.97;10365260;28;20034;-22
2021/12/14 19:32:58;;;;;;;67.93;39.17;;;;;;;19.36;56.92;97786.03;10369132;28;20030;-22
2021/12/14 19:38:02;;;;;;;60.97;34.70;;;;;;;19.36;56.70;97780.94;10368124;28;20572;-22
2021/12/14 19:43:14;;;;;;;63.78;34.97;;;;;;;19.40;56.57;97791.16;10360238;28;20120;-22
2021/12/14 19:48:25;;;;;;;60.13;34.25;;;;;;;19.40;56.48;97792.81;10362971;28;20521;-23
2021/12/14 19:53:33;;;;;;;60.22;32.05;;;;;;;19.50;56.14;97798.06;10360064;28;20517;-22
2021/12/14 19:58:38;;;;;;;55.90;30.05;;;;;;;19.43;56.00;97805.59;10358240;28;20498;-22
2021/12/14 20:03:47;;;;;;;58.20;30.73;;;;;;;19.37;56.44;97790.25;10366589;28;20121;-22
2021/12/14 20:08:54;;;;;;;54.30;30.40;;;;;;;19.44;56.38;97794.59;10367505;28;20501;-22
2021/12/14 20:14:03;;;;;;;47.28;28.17;;;;;;;19.38;56.45;97791.97;10367480;28;20513;-22
2021/12/14 20:19:04;;;;;;;44.92;27.17;;;;;;;19.46;56.45;97791.25;10360593;28;20441;-22
2021/12/14 20:24:11;;;;;;;45.33;27.77;;;;;;;19.48;56.31;97801.41;10367313;28;20119;-22
2021/12/14 20:29:18;;;;;;;49.80;27.70;;;;;;;19.46;56.22;97795.47;10365562;28;20084;-21
2021/12/14 20:34:41;;;;;;;45.90;24.85;;;;;;;19.46;56.12;97796.31;10365862;28;20038;-22
2021/12/14 20:39:52;;;;;;;46.47;26.92;;;;;;;19.54;55.87;97791.34;10363039;28;20045;-22
2021/12/14 20:49:58;;;;;;;40.65;25.60;;;;;;;19.47;55.83;97787.88;10366162;28;20045;-22
2021/12/14 20:55:08;;;;;;;39.05;24.08;;;;;;;19.51;55.90;97783.69;10361035;28;20557;-22
2021/12/14 21:00:12;;;;;;;40.05;24.65;;;;;;;19.52;55.73;97787.94;10366779;28;20041;-22
2021/12/14 21:05:15;;;;;;;36.05;23.13;;;;;;;19.51;55.83;97798.94;10364969;28;20501;-22
2021/12/14 21:10:20;;;;;;;37.38;22.77;;;;;;;19.45;55.47;97788.69;10365638;28;20030;-22
2021/12/14 21:15:26;;;;;;;35.53;22.70;;;;;;;19.52;55.85;97805.72;10363415;28;20046;-22
2021/12/14 21:20:35;;;;;;;32.97;20.67;;;;;;;19.50;55.80;97812.47;10363050;28;20037;-23
2021/12/14 21:25:44;;;;;;;34.72;21.13;;;;;;;19.51;55.74;97819.25;10365203;28;20034;-22
2021/12/14 21:30:48;;;;;;;31.10;19.80;;;;;;;19.52;55.49;97820.94;10361376;28;20033;-22
2021/12/14 21:36:13;;;;;;;34.35;21.67;;;;;;;19.51;55.66;97824.31;10363798;28;20053;-22
2021/12/14 21:41:20;;;;;;;31.80;19.00;;;;;;;19.46;55.93;97833.56;10363638;28;20061;-22
2021/12/14 21:46:40;;;;;;;31.25;19.70;;;;;;;19.45;55.96;97831.84;10364035;28;20040;-22
2021/12/14 21:51:44;;;;;;;33.72;21.50;;;;;;;19.45;55.71;97834.41;10357390;28;20058;-22
2021/12/14 21:56:47;;;;;;;28.10;18.67;;;;;;;19.44;55.77;97836.06;10362773;28;20112;-23
2021/12/14 22:01:48;;;;;;;29.83;19.85;;;;;;;19.40;55.96;97841.94;10363149;28;20127;-22
2021/12/14 22:06:48;;;;;;;28.58;17.77;;;;;;;19.41;55.71;97843.66;10362972;28;20044;-22
2021/12/14 22:11:58;;;;;;;26.73;17.57;;;;;;;19.43;55.59;97851.31;10362274;28;20034;-22
2021/12/14 22:17:08;;;;;;;30.58;18.67;;;;;;;19.42;55.96;97850.44;10364439;28;20084;-22
2021/12/14 22:22:12;;;;;;;27.00;18.05;;;;;;;19.45;55.50;97842.00;10364240;28;20403;-22
2021/12/14 22:27:13;;;;;;;26.25;16.52;;;;;;;19.45;55.42;97842.88;10366031;28;20118;-23
2021/12/14 22:32:14;;;;;;;27.48;17.98;;;;;;;19.45;55.56;97839.47;10371171;28;20030;-23
2021/12/14 22:37:17;;;;;;;24.50;17.48;;;;;;;19.45;55.83;97829.31;10371196;28;20604;-22
2021/12/14 22:47:28;;;;;;;24.05;16.08;;;;;;;19.43;56.33;97831.81;10374604;28;20041;-22
2021/12/14 22:52:31;;;;;;;24.95;15.75;;;;;;;19.43;56.34;97836.06;10364060;28;20064;-22
2021/12/14 22:57:32;;;;;;;21.30;14.35;;;;;;;19.41;56.68;97830.13;10370556;28;20054;-22
2021/12/14 23:02:32;;;;;;;23.75;15.40;;;;;;;19.44;56.68;97832.69;10370374;28;20129;-22
2021/12/14 23:07:33;;;;;;;23.00;15.13;;;;;;;19.50;56.47;97838.69;10369578;28;20045;-23
2021/12/14 23:12:42;;;;;;;21.77;15.30;;;;;;;19.47;56.21;97837.81;10368946;28;20720;-22
2021/12/14 23:18:05;;;;;;;24.02;14.57;;;;;;;19.43;56.76;97836.91;10370063;28;20317;-22
2021/12/14 23:23:07;;;;;;;24.83;15.80;;;;;;;19.44;56.48;97840.31;10368128;28;20521;-22
2021/12/14 23:28:08;;;;;;;20.38;14.80;;;;;;;19.40;56.50;97830.94;10367657;28;20037;-22
2021/12/14 23:33:09;;;;;;;22.20;14.48;;;;;;;19.41;56.74;97837.75;10368455;28;20626;-22
2021/12/14 23:38:10;;;;;;;22.02;14.18;;;;;;;19.39;56.74;97839.38;10368942;28;20042;-23
2021/12/14 23:43:11;;;;;;;21.85;15.43;;;;;;;19.42;56.79;97844.53;10370672;28;20108;-23
2021/12/14 23:48:15;;;;;;;18.80;12.68;;;;;;;19.33;56.71;97826.63;10373446;28;20041;-21
2021/12/14 23:53:16;;;;;;;21.55;14.70;;;;;;;19.41;57.03;97843.66;10363954;28;20072;-22
2021/12/14 23:58:16;;;;;;;22.00;14.35;;;;;;;19.43;56.45;97839.44;10365364;28;20612;-22
